sensor_id;sensor_type;location;lat;lon;timestamp;pressure;altitude;pressure_sealevel;temperature;humidity
8705;BME280;4389;41.932;25.904;2023-01-30T00:01:36;100995.09;;;4.36;93.91
8705;BME280;4389;41.932;25.904;2023-01-30T00:04:05;101004.03;;;4.32;93.18
8705;BME280;4389;41.932;25.904;2023-01-30T00:06:32;101002.69;;;4.41;92.93
8705;BME280;4389;41.932;25.904;2023-01-30T00:08:59;100995.63;;;4.28;93.15
8705;BME280;4389;41.932;25.904;2023-01-30T00:11:25;101001.69;;;4.13;94.40
8705;BME280;4389;41.932;25.904;2023-01-30T00:13:54;100998.13;;;4.29;94.07
8705;BME280;4389;41.932;25.904;2023-01-30T00:16:21;100999.16;;;4.27;92.75
8705;BME280;4389;41.932;25.904;2023-01-30T00:18:48;100990.25;;;4.29;93.62
8705;BME280;4389;41.932;25.904;2023-01-30T00:21:16;100994.31;;;4.19;92.95
8705;BME280;4389;41.932;25.904;2023-01-30T00:23:43;100991.19;;;4.28;93.17
8705;BME280;4389;41.932;25.904;2023-01-30T00:26:10;100995.75;;;4.24;92.51
8705;BME280;4389;41.932;25.904;2023-01-30T00:28:37;100995.41;;;4.15;93.59
8705;BME280;4389;41.932;25.904;2023-01-30T00:31:05;100991.72;;;4.19;92.69
8705;BME280;4389;41.932;25.904;2023-01-30T00:33:31;100988.84;;;4.39;92.29
8705;BME280;4389;41.932;25.904;2023-01-30T00:36:00;100980.81;;;4.42;92.41
8705;BME280;4389;41.932;25.904;2023-01-30T00:38:29;100982.41;;;4.44;93.07
8705;BME280;4389;41.932;25.904;2023-01-30T00:40:56;100978.38;;;4.39;92.90
8705;BME280;4389;41.932;25.904;2023-01-30T00:43:23;100969.78;;;4.37;93.38
8705;BME280;4389;41.932;25.904;2023-01-30T00:46:12;100963.19;;;4.30;93.16
8705;BME280;4389;41.932;25.904;2023-01-30T00:48:57;100967.75;;;4.27;93.46
8705;BME280;4389;41.932;25.904;2023-01-30T00:51:24;100962.81;;;4.36;93.20
8705;BME280;4389;41.932;25.904;2023-01-30T00:53:53;100967.03;;;4.54;92.26
8705;BME280;4389;41.932;25.904;2023-01-30T00:56:20;100968.13;;;4.50;92.09
8705;BME280;4389;41.932;25.904;2023-01-30T00:58:46;100969.78;;;4.37;92.79
8705;BME280;4389;41.932;25.904;2023-01-30T01:01:13;100979.88;;;4.43;92.59
8705;BME280;4389;41.932;25.904;2023-01-30T01:03:40;100972.09;;;4.57;92.10
8705;BME280;4389;41.932;25.904;2023-01-30T01:06:07;100969.59;;;4.55;91.87
8705;BME280;4389;41.932;25.904;2023-01-30T01:08:34;100965.03;;;4.43;91.80
8705;BME280;4389;41.932;25.904;2023-01-30T01:11:02;100959.44;;;4.49;92.49
8705;BME280;4389;41.932;25.904;2023-01-30T01:13:29;100958.78;;;4.46;92.82
8705;BME280;4389;41.932;25.904;2023-01-30T01:15:55;100956.16;;;4.30;92.30
8705;BME280;4389;41.932;25.904;2023-01-30T01:18:22;100956.75;;;4.35;92.97
8705;BME280;4389;41.932;25.904;2023-01-30T01:20:49;100955.88;;;4.35;92.54
8705;BME280;4389;41.932;25.904;2023-01-30T01:23:16;100952.00;;;4.42;92.34
8705;BME280;4389;41.932;25.904;2023-01-30T01:25:43;100954.72;;;4.25;93.18
8705;BME280;4389;41.932;25.904;2023-01-30T01:28:11;100952.34;;;4.36;93.69
8705;BME280;4389;41.932;25.904;2023-01-30T01:30:37;100953.44;;;4.32;92.84
8705;BME280;4389;41.932;25.904;2023-01-30T01:33:04;100946.75;;;4.42;92.58
8705;BME280;4389;41.932;25.904;2023-01-30T01:35:31;100952.19;;;4.39;93.14
8705;BME280;4389;41.932;25.904;2023-01-30T01:37:58;100945.66;;;4.46;92.98
8705;BME280;4389;41.932;25.904;2023-01-30T01:40:25;100947.69;;;4.41;92.42
8705;BME280;4389;41.932;25.904;2023-01-30T01:43:16;100940.84;;;4.54;92.01
8705;BME280;4389;41.932;25.904;2023-01-30T01:45:43;100945.94;;;4.41;91.94
8705;BME280;4389;41.932;25.904;2023-01-30T01:48:14;100934.59;;;4.25;92.93
8705;BME280;4389;41.932;25.904;2023-01-30T01:50:45;100933.78;;;4.25;93.02
8705;BME280;4389;41.932;25.904;2023-01-30T01:53:16;100939.75;;;4.42;93.85
8705;BME280;4389;41.932;25.904;2023-01-30T01:55:46;100931.91;;;4.27;93.31
8705;BME280;4389;41.932;25.904;2023-01-30T01:58:19;100933.44;;;4.31;93.22
8705;BME280;4389;41.932;25.904;2023-01-30T02:00:48;100937.75;;;4.32;94.32
8705;BME280;4389;41.932;25.904;2023-01-30T02:03:18;100928.19;;;4.31;94.59
8705;BME280;4389;41.932;25.904;2023-01-30T02:05:50;100928.19;;;4.31;93.50
8705;BME280;4389;41.932;25.904;2023-01-30T02:08:20;100923.38;;;4.39;92.64
8705;BME280;4389;41.932;25.904;2023-01-30T02:10:55;100925.25;;;4.37;92.83
8705;BME280;4389;41.932;25.904;2023-01-30T02:13:25;100921.59;;;4.39;93.33
8705;BME280;4389;41.932;25.904;2023-01-30T02:15:52;100914.31;;;4.29;92.70
8705;BME280;4389;41.932;25.904;2023-01-30T02:18:20;100912.66;;;4.28;93.82
8705;BME280;4389;41.932;25.904;2023-01-30T02:21:00;100912.31;;;4.34;93.23
8705;BME280;4389;41.932;25.904;2023-01-30T02:23:52;100914.00;;;4.35;93.21
8705;BME280;4389;41.932;25.904;2023-01-30T02:29:42;100905.38;;;4.33;92.41
8705;BME280;4389;41.932;25.904;2023-01-30T02:32:22;100902.34;;;4.40;92.34
8705;BME280;4389;41.932;25.904;2023-01-30T02:34:58;100904.03;;;4.26;92.37
8705;BME280;4389;41.932;25.904;2023-01-30T02:37:35;100899.00;;;4.23;93.82
8705;BME280;4389;41.932;25.904;2023-01-30T02:40:28;100900.47;;;4.27;93.37
8705;BME280;4389;41.932;25.904;2023-01-30T02:43:05;100892.63;;;4.27;92.66
8705;BME280;4389;41.932;25.904;2023-01-30T02:45:37;100897.94;;;4.25;93.03
8705;BME280;4389;41.932;25.904;2023-01-30T02:48:11;100901.16;;;4.15;94.12
8705;BME280;4389;41.932;25.904;2023-01-30T02:50:43;100902.34;;;4.25;94.48
8705;BME280;4389;41.932;25.904;2023-01-30T02:53:11;100901.16;;;4.15;93.40
8705;BME280;4389;41.932;25.904;2023-01-30T02:55:40;100894.09;;;4.02;94.53
8705;BME280;4389;41.932;25.904;2023-01-30T02:58:07;100896.09;;;4.12;95.20
8705;BME280;4389;41.932;25.904;2023-01-30T03:03:43;100897.09;;;3.94;95.68
8705;BME280;4389;41.932;25.904;2023-01-30T03:06:27;100893.91;;;4.05;95.53
8705;BME280;4389;41.932;25.904;2023-01-30T03:09:06;100895.09;;;3.99;95.41
8705;BME280;4389;41.932;25.904;2023-01-30T03:11:45;100895.19;;;4.13;95.03
8705;BME280;4389;41.932;25.904;2023-01-30T03:14:18;100889.69;;;4.18;95.92
8705;BME280;4389;41.932;25.904;2023-01-30T03:16:48;100886.84;;;4.07;94.79
8705;BME280;4389;41.932;25.904;2023-01-30T03:19:19;100891.47;;;4.17;95.70
8705;BME280;4389;41.932;25.904;2023-01-30T03:21:47;100886.66;;;4.25;95.83
8705;BME280;4389;41.932;25.904;2023-01-30T03:24:14;100888.91;;;4.31;94.97
8705;BME280;4389;41.932;25.904;2023-01-30T03:26:45;100880.47;;;4.26;93.49
8705;BME280;4389;41.932;25.904;2023-01-30T03:29:13;100883.63;;;4.02;94.46
8705;BME280;4389;41.932;25.904;2023-01-30T03:31:40;100888.59;;;4.06;95.11
8705;BME280;4389;41.932;25.904;2023-01-30T03:34:07;100882.00;;;3.99;95.21
8705;BME280;4389;41.932;25.904;2023-01-30T03:36:35;100888.34;;;3.95;95.26
8705;BME280;4389;41.932;25.904;2023-01-30T03:39:03;100882.25;;;3.79;95.90
8705;BME280;4389;41.932;25.904;2023-01-30T03:41:29;100884.53;;;3.85;96.67
8705;BME280;4389;41.932;25.904;2023-01-30T03:43:56;100871.78;;;3.79;96.05
8705;BME280;4389;41.932;25.904;2023-01-30T03:46:23;100883.09;;;3.64;96.30
8705;BME280;4389;41.932;25.904;2023-01-30T03:48:50;100875.50;;;3.75;96.32
8705;BME280;4389;41.932;25.904;2023-01-30T03:51:17;100878.63;;;3.66;96.02
8705;BME280;4389;41.932;25.904;2023-01-30T03:53:45;100880.81;;;3.74;96.73
8705;BME280;4389;41.932;25.904;2023-01-30T03:56:12;100882.94;;;3.83;96.51
8705;BME280;4389;41.932;25.904;2023-01-30T03:58:38;100879.63;;;3.79;96.61
8705;BME280;4389;41.932;25.904;2023-01-30T04:01:06;100882.25;;;3.79;97.46
8705;BME280;4389;41.932;25.904;2023-01-30T04:03:33;100885.66;;;3.81;97.41
8705;BME280;4389;41.932;25.904;2023-01-30T04:06:00;100883.63;;;3.71;98.05
8705;BME280;4389;41.932;25.904;2023-01-30T04:08:27;100876.91;;;3.65;97.22
8705;BME280;4389;41.932;25.904;2023-01-30T04:10:55;100870.44;;;3.72;98.44
8705;BME280;4389;41.932;25.904;2023-01-30T04:13:22;100874.31;;;3.81;98.04
8705;BME280;4389;41.932;25.904;2023-01-30T04:15:49;100864.19;;;3.90;97.61
8705;BME280;4389;41.932;25.904;2023-01-30T04:18:16;100874.16;;;3.68;98.02
8705;BME280;4389;41.932;25.904;2023-01-30T04:20:43;100873.97;;;3.71;98.30
8705;BME280;4389;41.932;25.904;2023-01-30T04:23:09;100869.44;;;3.75;98.99
8705;BME280;4389;41.932;25.904;2023-01-30T04:25:36;100875.50;;;3.75;99.15
8705;BME280;4389;41.932;25.904;2023-01-30T04:28:04;100877.63;;;3.84;98.23
8705;BME280;4389;41.932;25.904;2023-01-30T04:30:31;100874.50;;;3.93;97.65
8705;BME280;4389;41.932;25.904;2023-01-30T04:32:58;100879.91;;;3.90;98.25
8705;BME280;4389;41.932;25.904;2023-01-30T04:35:25;100871.19;;;3.90;98.19
8705;BME280;4389;41.932;25.904;2023-01-30T04:37:51;100872.81;;;3.92;97.51
8705;BME280;4389;41.932;25.904;2023-01-30T04:40:18;100870.19;;;3.92;97.99
8705;BME280;4389;41.932;25.904;2023-01-30T04:42:45;100873.00;;;3.89;98.37
8705;BME280;4389;41.932;25.904;2023-01-30T04:45:13;100868.75;;;3.87;98.03
8705;BME280;4389;41.932;25.904;2023-01-30T04:47:40;100867.22;;;3.83;97.94
8705;BME280;4389;41.932;25.904;2023-01-30T04:50:08;100873.13;;;3.86;97.10
8705;BME280;4389;41.932;25.904;2023-01-30T04:52:35;100869.25;;;3.93;97.08
8705;BME280;4389;41.932;25.904;2023-01-30T04:55:03;100875.69;;;3.88;98.04
8705;BME280;4389;41.932;25.904;2023-01-30T04:57:30;100877.38;;;3.89;97.67
8705;BME280;4389;41.932;25.904;2023-01-30T04:59:57;100876.69;;;3.85;97.94
8705;BME280;4389;41.932;25.904;2023-01-30T05:02:25;100870.28;;;3.75;97.27
8705;BME280;4389;41.932;25.904;2023-01-30T05:04:51;100870.63;;;3.85;97.91
8705;BME280;4389;41.932;25.904;2023-01-30T05:07:18;100875.19;;;3.81;98.24
8705;BME280;4389;41.932;25.904;2023-01-30T05:09:45;100878.38;;;3.86;97.44
8705;BME280;4389;41.932;25.904;2023-01-30T05:12:12;100883.28;;;3.77;97.97
8705;BME280;4389;41.932;25.904;2023-01-30T05:14:38;100879.06;;;3.74;97.74
8705;BME280;4389;41.932;25.904;2023-01-30T05:17:06;100885.28;;;3.56;98.13
8705;BME280;4389;41.932;25.904;2023-01-30T05:19:35;100884.59;;;3.53;98.72
8705;BME280;4389;41.932;25.904;2023-01-30T05:22:02;100886.88;;;3.59;99.33
8705;BME280;4389;41.932;25.904;2023-01-30T05:24:29;100894.47;;;3.63;99.86
8705;BME280;4389;41.932;25.904;2023-01-30T05:26:56;100892.38;;;3.54;98.89
8705;BME280;4389;41.932;25.904;2023-01-30T05:29:23;100888.63;;;3.58;99.55
8705;BME280;4389;41.932;25.904;2023-01-30T05:31:50;100890.81;;;3.50;99.71
8705;BME280;4389;41.932;25.904;2023-01-30T05:34:17;100886.78;;;3.45;99.50
8705;BME280;4389;41.932;25.904;2023-01-30T05:36:45;100886.09;;;3.41;99.93
8705;BME280;4389;41.932;25.904;2023-01-30T05:39:11;100886.59;;;3.32;100.00
8705;BME280;4389;41.932;25.904;2023-01-30T05:41:38;100896.72;;;3.38;100.00
8705;BME280;4389;41.932;25.904;2023-01-30T05:44:05;100891.94;;;3.46;100.00
8705;BME280;4389;41.932;25.904;2023-01-30T05:46:32;100885.44;;;3.53;100.00
8705;BME280;4389;41.932;25.904;2023-01-30T05:48:59;100888.31;;;3.64;100.00
8705;BME280;4389;41.932;25.904;2023-01-30T05:51:26;100885.13;;;3.59;100.00
8705;BME280;4389;41.932;25.904;2023-01-30T05:53:56;100883.09;;;3.64;99.99
8705;BME280;4389;41.932;25.904;2023-01-30T05:56:23;100881.06;;;3.69;100.00
8705;BME280;4389;41.932;25.904;2023-01-30T05:58:51;100896.78;;;3.69;100.00
8705;BME280;4389;41.932;25.904;2023-01-30T06:01:18;100887.28;;;3.51;100.00
8705;BME280;4389;41.932;25.904;2023-01-30T06:03:45;100886.13;;;3.57;100.00
8705;BME280;4389;41.932;25.904;2023-01-30T06:06:12;100879.97;;;3.58;100.00
8705;BME280;4389;41.932;25.904;2023-01-30T06:08:39;100881.28;;;3.49;99.95
8705;BME280;4389;41.932;25.904;2023-01-30T06:11:09;100883.41;;;3.43;100.00
8705;BME280;4389;41.932;25.904;2023-01-30T06:13:37;100884.53;;;3.37;100.00
8705;BME280;4389;41.932;25.904;2023-01-30T06:16:04;100888.47;;;3.46;100.00
8705;BME280;4389;41.932;25.904;2023-01-30T06:18:32;100884.34;;;3.57;100.00
8705;BME280;4389;41.932;25.904;2023-01-30T06:20:59;100893.38;;;3.52;99.76
8705;BME280;4389;41.932;25.904;2023-01-30T06:23:27;100888.81;;;3.55;100.00
8705;BME280;4389;41.932;25.904;2023-01-30T06:25:53;100896.66;;;3.55;99.48
8705;BME280;4389;41.932;25.904;2023-01-30T06:28:22;100895.59;;;3.59;99.98
8705;BME280;4389;41.932;25.904;2023-01-30T06:30:50;100894.03;;;3.55;100.00
8705;BME280;4389;41.932;25.904;2023-01-30T06:33:17;100893.88;;;3.58;100.00
8705;BME280;4389;41.932;25.904;2023-01-30T06:35:46;100892.88;;;3.61;99.88
8705;BME280;4389;41.932;25.904;2023-01-30T06:38:13;100893.78;;;3.60;100.00
8705;BME280;4389;41.932;25.904;2023-01-30T06:40:43;100896.59;;;3.57;100.00
8705;BME280;4389;41.932;25.904;2023-01-30T06:43:10;100899.78;;;3.46;99.75
8705;BME280;4389;41.932;25.904;2023-01-30T06:45:38;100905.94;;;3.45;100.00
8705;BME280;4389;41.932;25.904;2023-01-30T06:48:06;100900.81;;;3.59;100.00
8705;BME280;4389;41.932;25.904;2023-01-30T06:50:33;100902.66;;;3.57;100.00
8705;BME280;4389;41.932;25.904;2023-01-30T06:53:01;100901.50;;;3.63;99.30
8705;BME280;4389;41.932;25.904;2023-01-30T06:55:29;100909.56;;;3.58;99.49
8705;BME280;4389;41.932;25.904;2023-01-30T06:58:03;100905.88;;;3.62;99.46
8705;BME280;4389;41.932;25.904;2023-01-30T07:00:31;100900.84;;;3.42;99.92
8705;BME280;4389;41.932;25.904;2023-01-30T07:03:00;100907.38;;;3.51;99.39
8705;BME280;4389;41.932;25.904;2023-01-30T07:05:27;100897.28;;;3.60;98.32
8705;BME280;4389;41.932;25.904;2023-01-30T07:07:54;100903.06;;;3.50;98.25
8705;BME280;4389;41.932;25.904;2023-01-30T07:10:22;100896.06;;;3.50;99.36
8705;BME280;4389;41.932;25.904;2023-01-30T07:12:50;100895.81;;;3.55;98.38
8705;BME280;4389;41.932;25.904;2023-01-30T07:15:17;100897.59;;;3.54;98.45
8705;BME280;4389;41.932;25.904;2023-01-30T07:17:44;100888.75;;;3.24;99.78
8705;BME280;4389;41.932;25.904;2023-01-30T07:20:12;100888.53;;;3.44;100.00
8705;BME280;4389;41.932;25.904;2023-01-30T07:22:39;100894.22;;;3.52;99.99
8705;BME280;4389;41.932;25.904;2023-01-30T07:25:07;100896.66;;;3.55;98.69
8705;BME280;4389;41.932;25.904;2023-01-30T07:27:34;100892.38;;;3.54;98.92
8705;BME280;4389;41.932;25.904;2023-01-30T07:30:01;100893.28;;;3.53;99.10
8705;BME280;4389;41.932;25.904;2023-01-30T07:32:28;100891.34;;;3.72;99.61
8705;BME280;4389;41.932;25.904;2023-01-30T07:34:54;100887.16;;;3.85;97.97
8705;BME280;4389;41.932;25.904;2023-01-30T07:37:22;100894.25;;;3.83;97.55
8705;BME280;4389;41.932;25.904;2023-01-30T07:39:49;100891.22;;;3.75;97.35
8705;BME280;4389;41.932;25.904;2023-01-30T07:42:16;100889.00;;;3.52;98.83
8705;BME280;4389;41.932;25.904;2023-01-30T07:44:43;100887.94;;;3.39;98.38
8705;BME280;4389;41.932;25.904;2023-01-30T07:47:10;100897.09;;;3.63;99.25
8705;BME280;4389;41.932;25.904;2023-01-30T07:49:36;100893.31;;;3.84;98.85
8705;BME280;4389;41.932;25.904;2023-01-30T07:52:03;100894.41;;;3.96;97.87
8705;BME280;4389;41.932;25.904;2023-01-30T07:54:31;100889.34;;;4.08;97.65
8705;BME280;4389;41.932;25.904;2023-01-30T07:56:58;100883.78;;;4.14;97.03
8705;BME280;4389;41.932;25.904;2023-01-30T07:59:25;100892.56;;;4.13;97.46
8705;BME280;4389;41.932;25.904;2023-01-30T08:01:52;100893.56;;;4.26;97.73
8705;BME280;4389;41.932;25.904;2023-01-30T08:04:19;100891.44;;;4.32;97.30
8705;BME280;4389;41.932;25.904;2023-01-30T08:06:45;100888.44;;;4.54;95.22
8705;BME280;4389;41.932;25.904;2023-01-30T08:09:12;100895.09;;;4.59;95.41
8705;BME280;4389;41.932;25.904;2023-01-30T08:11:40;100887.56;;;4.69;95.42
8705;BME280;4389;41.932;25.904;2023-01-30T08:14:07;100897.31;;;4.67;94.25
8705;BME280;4389;41.932;25.904;2023-01-30T08:16:34;100889.59;;;4.64;93.92
8705;BME280;4389;41.932;25.904;2023-01-30T08:19:03;100894.00;;;4.63;93.35
8705;BME280;4389;41.932;25.904;2023-01-30T08:21:31;100892.44;;;4.75;93.91
8705;BME280;4389;41.932;25.904;2023-01-30T08:23:57;100885.44;;;4.89;93.63
8705;BME280;4389;41.932;25.904;2023-01-30T08:26:24;100887.63;;;4.97;93.77
8705;BME280;4389;41.932;25.904;2023-01-30T08:28:53;100887.63;;;4.97;93.34
8705;BME280;4389;41.932;25.904;2023-01-30T08:31:20;100885.22;;;4.94;93.81
8705;BME280;4389;41.932;25.904;2023-01-30T08:33:47;100894.38;;;4.87;94.09
8705;BME280;4389;41.932;25.904;2023-01-30T08:36:14;100888.81;;;4.77;93.56
8705;BME280;4389;41.932;25.904;2023-01-30T08:38:41;100887.56;;;4.69;93.51
8705;BME280;4389;41.932;25.904;2023-01-30T08:41:08;100887.75;;;4.66;94.36
8705;BME280;4389;41.932;25.904;2023-01-30T08:43:35;100879.06;;;4.79;93.16
8705;BME280;4389;41.932;25.904;2023-01-30T08:46:03;100875.78;;;4.76;94.05
8705;BME280;4389;41.932;25.904;2023-01-30T08:48:30;100884.09;;;4.68;94.32
8705;BME280;4389;41.932;25.904;2023-01-30T08:50:58;100869.72;;;4.46;95.40
8705;BME280;4389;41.932;25.904;2023-01-30T08:53:25;100874.22;;;4.44;96.01
8705;BME280;4389;41.932;25.904;2023-01-30T08:55:52;100874.44;;;4.39;95.72
8705;BME280;4389;41.932;25.904;2023-01-30T08:58:20;100879.25;;;4.47;95.65
8705;BME280;4389;41.932;25.904;2023-01-30T09:00:47;100869.19;;;4.55;97.14
8705;BME280;4389;41.932;25.904;2023-01-30T09:03:16;100867.88;;;4.62;95.18
8705;BME280;4389;41.932;25.904;2023-01-30T09:05:43;100868.63;;;4.64;94.56
8705;BME280;4389;41.932;25.904;2023-01-30T09:08:11;100866.22;;;4.61;94.85
8705;BME280;4389;41.932;25.904;2023-01-30T09:10:38;100862.56;;;4.63;94.80
8705;BME280;4389;41.932;25.904;2023-01-30T09:13:07;100862.50;;;4.79;94.64
8705;BME280;4389;41.932;25.904;2023-01-30T09:15:34;100863.59;;;4.61;93.56
8705;BME280;4389;41.932;25.904;2023-01-30T09:18:02;100854.25;;;4.71;94.68
8705;BME280;4389;41.932;25.904;2023-01-30T09:20:31;100854.78;;;4.62;94.45
8705;BME280;4389;41.932;25.904;2023-01-30T09:22:58;100854.97;;;4.59;94.36
8705;BME280;4389;41.932;25.904;2023-01-30T09:25:24;100840.19;;;4.72;94.47
8705;BME280;4389;41.932;25.904;2023-01-30T09:27:51;100838.66;;;4.83;93.60
8705;BME280;4389;41.932;25.904;2023-01-30T09:30:18;100827.22;;;4.70;93.88
8705;BME280;4389;41.932;25.904;2023-01-30T09:32:46;100819.19;;;4.87;93.89
8705;BME280;4389;41.932;25.904;2023-01-30T09:35:13;100823.63;;;5.01;94.24
8705;BME280;4389;41.932;25.904;2023-01-30T09:37:47;100825.56;;;4.97;93.70
8705;BME280;4389;41.932;25.904;2023-01-30T09:40:15;100814.81;;;5.16;93.56
8705;BME280;4389;41.932;25.904;2023-01-30T09:42:53;100813.31;;;5.26;93.10
8705;BME280;4389;41.932;25.904;2023-01-30T09:45:38;100811.41;;;5.42;93.29
8705;BME280;4389;41.932;25.904;2023-01-30T09:48:13;100796.59;;;5.55;91.80
8705;BME280;4389;41.932;25.904;2023-01-30T09:51:14;100800.16;;;5.54;92.21
8705;BME280;4389;41.932;25.904;2023-01-30T09:53:58;100797.94;;;5.74;90.42
8705;BME280;4389;41.932;25.904;2023-01-30T09:56:28;100797.00;;;5.89;89.16
8705;BME280;4389;41.932;25.904;2023-01-30T09:58:57;100783.16;;;6.00;89.72
8705;BME280;4389;41.932;25.904;2023-01-30T10:01:29;100783.59;;;5.94;89.19
8705;BME280;4389;41.932;25.904;2023-01-30T10:04:13;100778.81;;;6.13;88.34
8705;BME280;4389;41.932;25.904;2023-01-30T10:06:49;100769.19;;;6.38;86.37
8705;BME280;4389;41.932;25.904;2023-01-30T10:09:28;100763.34;;;6.47;86.19
8705;BME280;4389;41.932;25.904;2023-01-30T10:12:10;100763.13;;;6.50;85.64
8705;BME280;4389;41.932;25.904;2023-01-30T10:15:01;100753.06;;;6.82;83.68
8705;BME280;4389;41.932;25.904;2023-01-30T10:17:41;100752.53;;;6.89;82.98
8705;BME280;4389;41.932;25.904;2023-01-30T10:20:33;100744.94;;;6.72;84.64
8705;BME280;4389;41.932;25.904;2023-01-30T10:23:24;100740.22;;;6.65;84.16
8705;BME280;4389;41.932;25.904;2023-01-30T10:25:58;100735.16;;;6.37;84.86
8705;BME280;4389;41.932;25.904;2023-01-30T10:28:30;100731.78;;;6.35;85.62
8705;BME280;4389;41.932;25.904;2023-01-30T10:31:04;100725.25;;;6.28;85.99
8705;BME280;4389;41.932;25.904;2023-01-30T10:33:33;100718.84;;;5.80;87.80
8705;BME280;4389;41.932;25.904;2023-01-30T10:36:05;100716.88;;;6.48;88.62
8705;BME280;4389;41.932;25.904;2023-01-30T10:38:38;100709.19;;;6.70;86.02
8705;BME280;4389;41.932;25.904;2023-01-30T10:41:13;100699.00;;;6.53;84.84
8705;BME280;4389;41.932;25.904;2023-01-30T10:43:56;100694.16;;;6.47;85.70
8705;BME280;4389;41.932;25.904;2023-01-30T10:46:54;100679.22;;;6.35;85.53
8705;BME280;4389;41.932;25.904;2023-01-30T10:49:37;100688.81;;;6.61;87.42
8705;BME280;4389;41.932;25.904;2023-01-30T10:52:17;100677.31;;;6.87;84.63
8705;BME280;4389;41.932;25.904;2023-01-30T10:54:57;100663.34;;;7.22;84.90
8705;BME280;4389;41.932;25.904;2023-01-30T10:57:37;100657.97;;;7.24;84.51
8705;BME280;4389;41.932;25.904;2023-01-30T11:00:13;100659.66;;;7.25;81.31
8705;BME280;4389;41.932;25.904;2023-01-30T11:03:03;100659.41;;;7.28;79.61
8705;BME280;4389;41.932;25.904;2023-01-30T11:05:39;100646.25;;;7.28;78.61
8705;BME280;4389;41.932;25.904;2023-01-30T11:08:21;100633.72;;;7.08;79.12
8705;BME280;4389;41.932;25.904;2023-01-30T11:10:48;100629.34;;;6.96;81.25
8705;BME280;4389;41.932;25.904;2023-01-30T11:13:19;100628.94;;;7.13;81.05
8705;BME280;4389;41.932;25.904;2023-01-30T11:15:49;100622.16;;;6.98;80.33
8705;BME280;4389;41.932;25.904;2023-01-30T11:18:17;100606.81;;;7.04;81.11
8705;BME280;4389;41.932;25.904;2023-01-30T11:20:54;100609.13;;;7.20;81.51
8705;BME280;4389;41.932;25.904;2023-01-30T11:23:25;100600.59;;;7.29;78.08
8705;BME280;4389;41.932;25.904;2023-01-30T11:25:55;100600.44;;;7.54;77.11
8705;BME280;4389;41.932;25.904;2023-01-30T11:28:25;100600.81;;;7.49;76.80
8705;BME280;4389;41.932;25.904;2023-01-30T11:30:55;100600.28;;;7.68;76.87
8705;BME280;4389;41.932;25.904;2023-01-30T11:33:31;100592.38;;;7.68;77.17
8705;BME280;4389;41.932;25.904;2023-01-30T11:36:01;100596.53;;;7.94;76.63
8705;BME280;4389;41.932;25.904;2023-01-30T11:38:29;100592.16;;;8.27;75.96
8705;BME280;4389;41.932;25.904;2023-01-30T11:41:09;100582.19;;;8.75;75.45
8705;BME280;4389;41.932;25.904;2023-01-30T11:43:43;100571.78;;;8.62;74.84
8705;BME280;4389;41.932;25.904;2023-01-30T11:46:12;100570.69;;;8.87;73.60
8705;BME280;4389;41.932;25.904;2023-01-30T11:48:44;100568.53;;;8.92;71.56
8705;BME280;4389;41.932;25.904;2023-01-30T11:51:15;100564.97;;;8.71;70.88
8705;BME280;4389;41.932;25.904;2023-01-30T11:53:44;100562.28;;;8.82;71.27
8705;BME280;4389;41.932;25.904;2023-01-30T11:56:15;100554.63;;;8.68;74.04
8705;BME280;4389;41.932;25.904;2023-01-30T11:58:55;100550.00;;;8.27;75.47
8705;BME280;4389;41.932;25.904;2023-01-30T12:01:27;100547.66;;;7.90;74.13
8705;BME280;4389;41.932;25.904;2023-01-30T12:03:56;100547.34;;;7.60;75.79
8705;BME280;4389;41.932;25.904;2023-01-30T12:06:28;100548.09;;;7.38;76.67
8705;BME280;4389;41.932;25.904;2023-01-30T12:08:56;100538.44;;;6.92;76.77
8705;BME280;4389;41.932;25.904;2023-01-30T12:11:29;100530.25;;;6.60;77.73
8705;BME280;4389;41.932;25.904;2023-01-30T12:14:08;100539.09;;;6.11;79.27
8705;BME280;4389;41.932;25.904;2023-01-30T12:16:56;100524.44;;;6.32;80.58
8705;BME280;4389;41.932;25.904;2023-01-30T12:19:33;100526.66;;;6.38;80.18
8705;BME280;4389;41.932;25.904;2023-01-30T12:22:10;100519.50;;;6.40;80.25
8705;BME280;4389;41.932;25.904;2023-01-30T12:24:45;100510.88;;;6.74;80.92
8705;BME280;4389;41.932;25.904;2023-01-30T12:27:18;100512.38;;;6.89;79.93
8705;BME280;4389;41.932;25.904;2023-01-30T12:29:56;100508.59;;;6.93;79.82
8705;BME280;4389;41.932;25.904;2023-01-30T12:32:26;100505.78;;;6.83;78.91
8705;BME280;4389;41.932;25.904;2023-01-30T12:34:54;100503.53;;;6.90;79.58
8705;BME280;4389;41.932;25.904;2023-01-30T12:37:35;100498.97;;;6.81;78.97
8705;BME280;4389;41.932;25.904;2023-01-30T12:40:13;100499.03;;;6.68;77.25
8705;BME280;4389;41.932;25.904;2023-01-30T12:42:58;100486.13;;;6.53;79.00
8705;BME280;4389;41.932;25.904;2023-01-30T12:45:31;100488.75;;;6.53;81.00
8705;BME280;4389;41.932;25.904;2023-01-30T12:50:56;100486.84;;;6.55;81.23
8705;BME280;4389;41.932;25.904;2023-01-30T12:53:37;100479.25;;;6.63;79.52
8705;BME280;4389;41.932;25.904;2023-01-30T12:56:25;100476.53;;;6.64;80.19
8705;BME280;4389;41.932;25.904;2023-01-30T12:59:01;100468.31;;;6.69;80.24
8705;BME280;4389;41.932;25.904;2023-01-30T13:01:42;100464.16;;;6.54;79.06
8705;BME280;4389;41.932;25.904;2023-01-30T13:04:23;100468.56;;;6.30;80.69
8705;BME280;4389;41.932;25.904;2023-01-30T13:07:04;100467.59;;;6.31;80.95
8705;BME280;4389;41.932;25.904;2023-01-30T13:09:51;100473.06;;;6.28;80.64
8705;BME280;4389;41.932;25.904;2023-01-30T13:12:31;100460.00;;;6.39;81.52
8705;BME280;4389;41.932;25.904;2023-01-30T13:15:07;100456.88;;;6.34;81.54
8705;BME280;4389;41.932;25.904;2023-01-30T13:17:50;100456.69;;;6.24;79.97
8705;BME280;4389;41.932;25.904;2023-01-30T13:20:33;100461.63;;;6.16;80.84
8705;BME280;4389;41.932;25.904;2023-01-30T13:23:09;100461.53;;;6.18;80.99
8705;BME280;4389;41.932;25.904;2023-01-30T13:25:43;100460.28;;;6.11;81.12
8705;BME280;4389;41.932;25.904;2023-01-30T13:28:16;100464.81;;;6.09;80.28
8705;BME280;4389;41.932;25.904;2023-01-30T13:30:44;100466.13;;;6.27;81.60
8705;BME280;4389;41.932;25.904;2023-01-30T13:33:18;100455.00;;;6.36;80.70
8705;BME280;4389;41.932;25.904;2023-01-30T13:35:50;100448.78;;;6.37;79.35
8705;BME280;4389;41.932;25.904;2023-01-30T13:38:21;100453.34;;;6.22;79.47